15 Max
11 km/h
5 Mini

LFMY 151900Z AUTO 26006KT CAVOK 07/02 Q1004

TAF LFMY 151400Z 1515/1615 CNL